createdAt,value
2022-11-02T00:00:55.627Z,10.01
2022-11-02T00:03:23.995Z,9.98
2022-11-02T00:05:51.892Z,9.90
2022-11-02T00:08:19.829Z,9.91
2022-11-02T00:10:47.665Z,9.85
2022-11-02T00:13:20.809Z,9.81
2022-11-02T00:15:48.763Z,9.84
2022-11-02T00:18:18.140Z,9.90
2022-11-02T00:20:46.004Z,9.84
2022-11-02T00:23:15.558Z,9.88
2022-11-02T00:25:46.408Z,9.90
2022-11-02T00:28:14.625Z,9.81
2022-11-02T00:30:42.777Z,9.76
2022-11-02T00:33:10.797Z,9.72
2022-11-02T00:35:41.035Z,9.73
2022-11-02T00:38:09.065Z,9.73
2022-11-02T00:40:36.929Z,9.76
2022-11-02T00:43:06.051Z,9.75
2022-11-02T00:45:34.013Z,9.74
2022-11-02T00:48:02.301Z,9.76
2022-11-02T00:50:31.190Z,9.71
2022-11-02T00:53:00.440Z,9.71
2022-11-02T00:55:28.858Z,9.77
2022-11-02T00:58:01.930Z,9.74
2022-11-02T01:00:30.314Z,9.75
2022-11-02T01:03:00.883Z,9.75
2022-11-02T01:05:29.053Z,9.77
2022-11-02T01:07:57.344Z,9.73
2022-11-02T01:10:27.205Z,9.76
2022-11-02T01:12:55.141Z,9.63
2022-11-02T01:15:23.018Z,9.66
2022-11-02T01:17:51.141Z,9.66
2022-11-02T01:20:19.903Z,9.70
2022-11-02T01:22:47.827Z,9.75
2022-11-02T01:25:15.864Z,9.73
2022-11-02T01:27:45.161Z,9.72
2022-11-02T01:30:14.038Z,9.68
2022-11-02T01:32:41.927Z,9.69
2022-11-02T01:35:11.257Z,9.71
2022-11-02T01:37:39.669Z,9.73
2022-11-02T01:40:10.767Z,9.75
2022-11-02T01:42:38.801Z,9.77
2022-11-02T01:45:09.072Z,9.79
2022-11-02T01:47:39.156Z,9.80
2022-11-02T01:50:09.780Z,9.75
2022-11-02T01:52:39.193Z,9.81
2022-11-02T01:55:10.841Z,9.73
2022-11-02T01:57:39.706Z,9.77
2022-11-02T02:00:11.905Z,9.77
2022-11-02T02:02:49.564Z,9.74
2022-11-02T02:17:00.554Z,9.67
2022-11-02T02:31:42.586Z,9.53
2022-11-02T02:53:16.674Z,9.58
2022-11-02T03:14:38.959Z,9.48
2022-11-02T03:49:22.100Z,9.44
2022-11-02T04:07:55.473Z,9.35
2022-11-02T04:37:28.548Z,9.16
2022-11-02T04:40:02.684Z,9.08
2022-11-02T04:42:29.933Z,9.09
2022-11-02T04:45:01.077Z,9.11
2022-11-02T04:47:29.027Z,9.17
2022-11-02T04:49:57.128Z,9.09
2022-11-02T04:52:25.111Z,9.05
2022-11-02T04:54:53.087Z,9.10
2022-11-02T04:57:21.441Z,9.08
2022-11-02T04:59:49.426Z,9.06
2022-11-02T05:02:18.877Z,9.15
2022-11-02T05:04:47.912Z,9.06
2022-11-02T05:07:16.448Z,9.11
2022-11-02T05:09:45.351Z,9.11
2022-11-02T05:12:14.561Z,9.12
2022-11-02T05:14:42.649Z,9.18
2022-11-02T05:17:10.941Z,9.18
2022-11-02T05:19:41.426Z,9.13
2022-11-02T05:22:10.335Z,9.15
2022-11-02T05:24:38.524Z,9.29
2022-11-02T05:27:08.319Z,9.30
2022-11-02T05:29:37.829Z,9.36
2022-11-02T05:32:06.295Z,9.37
2022-11-02T05:34:35.486Z,9.41
2022-11-02T05:37:04.956Z,9.43
2022-11-02T05:39:33.336Z,9.49
2022-11-02T05:42:01.853Z,9.60
2022-11-02T05:44:30.755Z,9.60
2022-11-02T05:46:59.600Z,9.64
2022-11-02T05:49:27.654Z,9.66
2022-11-02T05:51:55.705Z,9.58
2022-11-02T05:54:25.063Z,9.73
2022-11-02T05:56:53.015Z,9.77
2022-11-02T05:59:20.910Z,9.82
2022-11-02T06:01:48.888Z,9.90
2022-11-02T06:04:16.951Z,9.94
2022-11-02T06:06:45.705Z,10.01
2022-11-02T06:09:13.666Z,10.02
2022-11-02T06:11:42.972Z,10.04
2022-11-02T06:14:10.920Z,10.09
2022-11-02T06:16:38.918Z,10.21
2022-11-02T06:19:06.921Z,10.21
2022-11-02T06:21:34.959Z,10.21
2022-11-02T06:24:02.965Z,10.27
2022-11-02T06:26:30.944Z,10.25
2022-11-02T06:29:00.697Z,10.34
2022-11-02T06:31:28.664Z,10.38
2022-11-02T06:33:56.646Z,10.27
2022-11-02T06:36:24.664Z,10.24
2022-11-02T06:38:52.606Z,10.11
2022-11-02T06:41:20.588Z,10.03
2022-11-02T06:43:48.561Z,9.94
2022-11-02T06:46:17.844Z,9.83
2022-11-02T06:48:47.949Z,9.81
2022-11-02T06:51:16.089Z,9.78
2022-11-02T06:53:45.070Z,9.73
2022-11-02T06:56:13.410Z,9.76
2022-11-02T06:58:41.325Z,9.84
2022-11-02T07:01:09.652Z,9.78
2022-11-02T07:03:38.984Z,9.89
2022-11-02T07:06:12.762Z,9.83
2022-11-02T07:08:42.318Z,9.84
2022-11-02T07:11:14.384Z,9.95
2022-11-02T07:13:42.306Z,10.01
2022-11-02T07:16:10.179Z,10.03
2022-11-02T07:18:39.416Z,10.03
2022-11-02T07:21:07.843Z,9.99
2022-11-02T07:23:36.340Z,10.00
2022-11-02T07:26:04.946Z,10.09
2022-11-02T07:28:32.797Z,10.09
2022-11-02T07:31:00.635Z,10.18
2022-11-02T07:33:28.578Z,10.15
2022-11-02T07:35:57.851Z,10.11
2022-11-02T07:38:25.717Z,10.25
2022-11-02T07:40:53.603Z,10.37
2022-11-02T07:43:21.582Z,10.43
2022-11-02T07:45:56.233Z,10.63
2022-11-02T07:48:24.207Z,10.66
2022-11-02T07:50:52.100Z,10.76
2022-11-02T07:53:21.367Z,10.84
2022-11-02T07:55:49.236Z,10.99
2022-11-02T07:58:17.086Z,11.10
2022-11-02T08:00:44.996Z,11.18
2022-11-02T08:03:14.643Z,11.37
2022-11-02T08:05:43.550Z,11.32
2022-11-02T08:08:13.431Z,11.43
2022-11-02T08:10:43.190Z,11.38
2022-11-02T08:13:12.714Z,11.38
2022-11-02T08:15:40.617Z,11.43
2022-11-02T08:18:11.052Z,11.62
2022-11-02T08:20:38.993Z,11.63
2022-11-02T08:23:07.637Z,11.61
2022-11-02T08:25:36.813Z,11.75
2022-11-02T08:28:06.919Z,11.74
2022-11-02T08:30:35.335Z,11.96
2022-11-02T08:33:05.737Z,12.01
2022-11-02T08:35:34.680Z,12.05
2022-11-02T08:38:03.350Z,12.28
2022-11-02T08:40:31.784Z,12.33
2022-11-02T08:43:00.033Z,12.30
2022-11-02T08:45:35.138Z,12.34
2022-11-02T08:48:11.177Z,12.38
2022-11-02T08:50:39.148Z,12.37
2022-11-02T08:53:07.672Z,12.59
2022-11-02T08:55:35.577Z,12.67
2022-11-02T08:58:03.755Z,12.62
2022-11-02T09:00:34.592Z,12.88
2022-11-02T09:03:04.964Z,13.04
2022-11-02T09:05:34.007Z,12.97
2022-11-02T09:08:04.011Z,13.14
2022-11-02T09:10:33.774Z,13.32
2022-11-02T09:13:02.763Z,13.38
2022-11-02T09:15:33.757Z,13.20
2022-11-02T09:18:02.047Z,13.46
2022-11-02T09:20:30.267Z,13.38
2022-11-02T09:22:58.191Z,13.34
2022-11-02T09:25:26.115Z,13.35
2022-11-02T09:27:55.720Z,13.57
2022-11-02T09:30:24.375Z,13.66
2022-11-02T09:32:56.987Z,13.83
2022-11-02T09:35:25.879Z,13.89
2022-11-02T09:37:53.797Z,13.88
2022-11-02T09:40:23.292Z,13.86
2022-11-02T09:43:00.197Z,13.73
2022-11-02T09:45:28.750Z,13.78
2022-11-02T09:48:20.991Z,13.84
2022-11-02T09:50:50.859Z,13.93
2022-11-02T09:53:21.400Z,14.10
2022-11-02T09:55:53.172Z,14.32
2022-11-02T09:58:27.150Z,14.16
2022-11-02T10:01:01.817Z,14.14
2022-11-02T10:03:42.370Z,14.26
2022-11-02T10:06:14.014Z,14.42
2022-11-02T10:08:48.493Z,14.34
2022-11-02T10:11:26.750Z,14.22
2022-11-02T10:13:57.569Z,14.34
2022-11-02T10:16:27.583Z,14.29
2022-11-02T10:18:56.866Z,14.22
2022-11-02T10:21:28.117Z,14.24
2022-11-02T10:23:57.307Z,14.26
2022-11-02T10:26:28.833Z,14.58
2022-11-02T10:28:59.839Z,14.59
2022-11-02T10:31:31.518Z,14.59
2022-11-02T10:34:06.819Z,14.56
2022-11-02T10:36:43.905Z,14.58
2022-11-02T10:39:20.435Z,14.32
2022-11-02T10:41:58.711Z,14.31
2022-11-02T10:44:35.556Z,14.27
2022-11-02T10:47:09.978Z,14.05
2022-11-02T10:50:27.661Z,14.11
2022-11-02T10:53:04.876Z,14.25
2022-11-02T10:55:49.969Z,14.07
2022-11-02T10:58:21.462Z,14.06
2022-11-02T11:00:51.169Z,14.19
2022-11-02T11:03:20.829Z,14.39
2022-11-02T11:06:01.385Z,14.89
2022-11-02T11:08:31.688Z,15.00
2022-11-02T11:11:17.813Z,15.33
2022-11-02T11:16:47.671Z,15.52
2022-11-02T11:19:38.376Z,15.23
2022-11-02T11:22:26.520Z,15.07
2022-11-02T11:24:55.148Z,15.09
2022-11-02T11:27:23.493Z,15.13
2022-11-02T11:29:54.574Z,15.06
2022-11-02T11:32:29.649Z,15.17
2022-11-02T11:35:00.641Z,15.78
2022-11-02T11:37:30.338Z,15.37
2022-11-02T11:40:00.627Z,14.98
2022-11-02T11:42:30.314Z,14.69
2022-11-02T11:45:00.812Z,14.58
2022-11-02T11:47:30.668Z,14.63
2022-11-02T11:50:09.517Z,14.48
2022-11-02T11:52:47.878Z,14.30
2022-11-02T11:55:24.627Z,14.31
2022-11-02T11:58:07.424Z,14.13
2022-11-02T12:00:35.729Z,14.29
2022-11-02T12:03:06.179Z,14.16
2022-11-02T12:05:44.475Z,14.66
2022-11-02T12:08:25.811Z,15.19
2022-11-02T12:11:18.597Z,15.15
2022-11-02T12:14:00.258Z,14.98
2022-11-02T12:16:33.601Z,14.65
2022-11-02T12:19:20.948Z,14.36
2022-11-02T12:21:59.447Z,14.27
2022-11-02T12:24:41.329Z,14.19
2022-11-02T12:27:20.355Z,13.97
2022-11-02T12:30:14.504Z,13.91
2022-11-02T12:33:03.837Z,14.07
2022-11-02T12:35:50.975Z,14.05
2022-11-02T12:38:37.245Z,14.03
2022-11-02T12:41:09.320Z,14.32
2022-11-02T12:43:42.590Z,14.54
2022-11-02T12:46:32.805Z,14.59
2022-11-02T12:49:16.041Z,15.08
2022-11-02T12:51:50.328Z,15.12
2022-11-02T12:54:22.049Z,15.37
2022-11-02T12:56:53.150Z,14.85
2022-11-02T12:59:23.859Z,14.67
2022-11-02T13:01:55.800Z,14.34
2022-11-02T13:04:29.564Z,14.06
2022-11-02T13:07:01.815Z,13.65
2022-11-02T13:09:32.788Z,13.25
2022-11-02T13:12:05.858Z,13.04
2022-11-02T13:14:40.667Z,13.91
2022-11-02T13:17:15.751Z,14.30
2022-11-02T13:19:46.673Z,14.84
2022-11-02T13:22:15.019Z,15.20
2022-11-02T13:24:45.131Z,15.12
2022-11-02T13:27:36.365Z,14.84
2022-11-02T13:30:07.891Z,14.25
2022-11-02T13:32:40.821Z,13.96
2022-11-02T13:35:14.230Z,13.63
2022-11-02T13:37:42.326Z,13.28
2022-11-02T13:40:16.961Z,13.18
2022-11-02T13:43:18.144Z,13.16
2022-11-02T13:45:54.124Z,13.06
2022-11-02T13:48:54.620Z,13.09
2022-11-02T13:51:28.066Z,13.02
2022-11-02T13:53:59.802Z,12.99
2022-11-02T13:56:29.389Z,12.99
2022-11-02T13:59:02.092Z,12.89
2022-11-02T14:01:32.297Z,12.79
2022-11-02T14:04:04.984Z,12.78
2022-11-02T14:06:34.972Z,12.60
2022-11-02T14:09:04.437Z,11.38
2022-11-02T14:11:38.060Z,10.67
2022-11-02T14:14:20.049Z,10.24
2022-11-02T14:16:59.049Z,9.95
2022-11-02T14:19:33.066Z,9.83
2022-11-02T14:22:12.291Z,9.79
2022-11-02T14:25:16.919Z,9.75
2022-11-02T14:27:45.591Z,9.62
2022-11-02T14:30:43.971Z,9.69
2022-11-02T14:33:38.684Z,9.67
2022-11-02T14:36:09.405Z,9.53
2022-11-02T14:38:58.938Z,9.65
2022-11-02T14:41:48.678Z,9.68
2022-11-02T14:44:31.579Z,9.75
2022-11-02T14:47:04.968Z,9.82
2022-11-02T14:49:34.680Z,9.91
2022-11-02T14:52:05.418Z,9.91
2022-11-02T14:54:34.685Z,9.94
2022-11-02T14:57:04.975Z,10.03
2022-11-02T14:59:34.926Z,10.04
2022-11-02T15:02:06.437Z,10.13
2022-11-02T15:04:35.710Z,10.19
2022-11-02T15:07:05.998Z,10.22
2022-11-02T15:09:53.981Z,10.33
2022-11-02T15:12:32.169Z,10.54
2022-11-02T15:15:02.915Z,10.69
2022-11-02T15:18:13.721Z,10.71
2022-11-02T15:20:46.225Z,10.71
2022-11-02T15:23:29.932Z,10.66
2022-11-02T15:25:59.131Z,10.61
2022-11-02T15:28:29.632Z,10.61
2022-11-02T15:30:59.289Z,10.53
2022-11-02T15:33:35.108Z,10.58
2022-11-02T15:36:05.671Z,10.53
2022-11-02T15:38:39.339Z,10.53
2022-11-02T15:41:18.957Z,10.54
2022-11-02T15:44:19.852Z,10.49
2022-11-02T15:46:59.470Z,10.48
2022-11-02T15:49:56.535Z,10.55
2022-11-02T15:53:08.571Z,10.53
2022-11-02T15:55:43.306Z,10.53
2022-11-02T15:58:21.529Z,10.57
2022-11-02T16:01:14.908Z,10.58
2022-11-02T16:03:44.673Z,10.63
2022-11-02T16:06:13.314Z,10.57
2022-11-02T16:08:44.139Z,10.62
2022-11-02T16:11:17.192Z,10.64
2022-11-02T16:14:03.335Z,10.74
2022-11-02T16:16:35.919Z,10.71
2022-11-02T16:19:04.138Z,10.68
2022-11-02T16:21:32.078Z,10.65
2022-11-02T16:24:01.310Z,10.55
2022-11-02T16:26:30.789Z,10.55
2022-11-02T16:28:59.885Z,10.54
2022-11-02T16:31:31.113Z,10.51
2022-11-02T16:34:00.304Z,10.49
2022-11-02T16:36:30.999Z,10.54
2022-11-02T16:39:01.920Z,10.56
2022-11-02T16:41:31.461Z,10.43
2022-11-02T16:44:02.276Z,10.47
2022-11-02T16:46:31.378Z,10.37
2022-11-02T16:49:04.820Z,10.35
2022-11-02T16:51:32.736Z,10.31
2022-11-02T16:57:11.439Z,10.08
2022-11-02T16:59:48.868Z,10.01
2022-11-02T17:02:17.154Z,9.94
2022-11-02T17:04:46.410Z,9.93
2022-11-02T17:07:17.585Z,9.94
2022-11-02T17:09:51.180Z,10.01
2022-11-02T17:12:30.429Z,9.95
2022-11-02T17:14:59.101Z,9.93
2022-11-02T17:17:38.769Z,9.97
2022-11-02T17:20:16.097Z,9.96
2022-11-02T17:22:51.680Z,9.99
2022-11-02T17:25:22.438Z,9.86
2022-11-02T17:27:52.229Z,9.79
2022-11-02T17:30:42.598Z,9.76
2022-11-02T17:33:15.186Z,9.77
2022-11-02T17:35:46.517Z,9.69
2022-11-02T17:38:14.495Z,9.66
2022-11-02T17:40:42.796Z,9.48
2022-11-02T17:43:11.101Z,9.50
2022-11-02T17:45:39.852Z,9.44
2022-11-02T17:48:09.760Z,9.50
2022-11-02T17:50:39.685Z,9.47
2022-11-02T17:53:07.753Z,9.48
2022-11-02T17:55:37.325Z,9.51
2022-11-02T17:58:07.558Z,9.48
2022-11-02T18:00:37.287Z,9.55
2022-11-02T18:03:05.336Z,9.51
2022-11-02T18:05:36.822Z,9.41
2022-11-02T18:08:06.224Z,9.45
2022-11-02T18:10:35.673Z,9.39
2022-11-02T18:13:03.989Z,9.43
2022-11-02T18:15:33.362Z,9.45
2022-11-02T18:18:03.038Z,9.46
2022-11-02T18:20:31.936Z,9.38
2022-11-02T18:23:00.779Z,9.43
2022-11-02T18:25:30.827Z,9.36
2022-11-02T18:27:59.475Z,9.35
2022-11-02T18:30:27.987Z,9.25
2022-11-02T18:32:57.680Z,9.30
2022-11-02T18:35:27.187Z,9.26
2022-11-02T18:37:55.100Z,9.10
2022-11-02T18:40:22.996Z,9.03
2022-11-02T18:42:51.065Z,9.07
2022-11-02T18:45:19.857Z,9.07
2022-11-02T18:47:47.881Z,9.11
2022-11-02T18:50:15.806Z,9.09
2022-11-02T18:52:48.882Z,9.13
2022-11-02T18:55:16.993Z,9.10
2022-11-02T18:57:45.788Z,9.15
2022-11-02T19:00:14.602Z,9.23
2022-11-02T19:02:42.493Z,9.13
2022-11-02T19:05:30.836Z,9.25
2022-11-02T19:08:19.672Z,9.19
2022-11-02T19:10:48.336Z,9.13
2022-11-02T19:13:16.391Z,9.10
2022-11-02T19:15:44.317Z,8.99
2022-11-02T19:18:12.281Z,9.07
2022-11-02T19:20:40.190Z,9.06
2022-11-02T19:23:10.053Z,9.05
2022-11-02T19:25:38.252Z,8.90
2022-11-02T19:28:06.465Z,8.94
2022-11-02T19:30:34.502Z,8.97
2022-11-02T19:33:02.392Z,8.92
2022-11-02T19:35:30.298Z,8.87
2022-11-02T19:37:59.080Z,8.93
2022-11-02T19:40:31.100Z,8.89
2022-11-02T19:42:59.044Z,8.87
2022-11-02T19:45:27.060Z,8.81
2022-11-02T19:47:55.261Z,8.71
2022-11-02T19:50:23.172Z,8.75
2022-11-02T19:52:51.060Z,8.79
2022-11-02T19:55:22.628Z,8.67
2022-11-02T19:57:52.002Z,8.71
2022-11-02T20:00:20.173Z,8.64
2022-11-02T20:02:50.339Z,8.56
2022-11-02T20:05:18.429Z,8.50
2022-11-02T20:07:46.339Z,8.39
2022-11-02T20:10:14.593Z,8.38
2022-11-02T20:12:42.544Z,8.26
2022-11-02T20:15:12.190Z,8.11
2022-11-02T20:17:52.365Z,7.98
2022-11-02T20:20:28.332Z,7.94
2022-11-02T20:22:56.376Z,7.82
2022-11-02T20:25:25.675Z,7.73
2022-11-02T20:27:53.669Z,7.61
2022-11-02T20:30:23.734Z,7.66
2022-11-02T20:32:51.609Z,7.57
2022-11-02T20:35:24.508Z,7.45
2022-11-02T20:37:52.426Z,7.46
2022-11-02T20:40:20.409Z,7.41
2022-11-02T20:42:49.747Z,7.40
2022-11-02T20:45:17.879Z,7.31
2022-11-02T20:47:47.311Z,7.35
2022-11-02T20:50:17.547Z,7.33
2022-11-02T20:52:46.497Z,7.36
2022-11-02T20:55:14.388Z,7.33
2022-11-02T20:57:42.322Z,7.40
2022-11-02T21:00:11.938Z,7.32
2022-11-02T21:02:39.895Z,7.33
2022-11-02T21:05:10.159Z,7.30
2022-11-02T21:07:38.118Z,7.42
2022-11-02T21:10:07.111Z,7.46
2022-11-02T21:12:52.405Z,7.39
2022-11-02T21:15:20.338Z,7.33
2022-11-02T21:17:48.238Z,7.37
2022-11-02T21:20:33.756Z,7.37
2022-11-02T21:23:03.044Z,7.42
2022-11-02T21:25:31.761Z,7.42
2022-11-02T21:28:00.225Z,7.46
2022-11-02T21:30:28.559Z,7.42
2022-11-02T21:32:56.483Z,7.43
2022-11-02T21:35:26.114Z,7.41
2022-11-02T21:37:59.261Z,7.43
2022-11-02T21:40:31.246Z,7.39
2022-11-02T21:42:59.261Z,7.42
2022-11-02T21:45:27.507Z,7.36
2022-11-02T21:47:56.073Z,7.38
2022-11-02T21:50:27.029Z,7.27
2022-11-02T21:52:57.332Z,7.24
2022-11-02T21:55:25.425Z,7.20
2022-11-02T21:57:53.574Z,7.23
2022-11-02T22:00:21.523Z,7.19
2022-11-02T22:02:48.628Z,7.11
2022-11-02T22:05:37.798Z,7.03
2022-11-02T22:08:24.674Z,6.97
2022-11-02T22:10:58.103Z,7.02
2022-11-02T22:13:35.257Z,6.96
2022-11-02T22:16:11.244Z,6.91
2022-11-02T22:18:39.359Z,6.86
2022-11-02T22:21:07.301Z,6.88
2022-11-02T22:23:36.651Z,6.88
2022-11-02T22:26:06.581Z,6.92
2022-11-02T22:28:36.412Z,6.92
2022-11-02T22:31:08.424Z,6.85
2022-11-02T22:33:36.430Z,6.70
2022-11-02T22:36:06.132Z,6.78
2022-11-02T22:38:53.537Z,6.69
2022-11-02T22:41:24.938Z,6.68
2022-11-02T22:43:54.038Z,6.67
2022-11-02T22:46:22.446Z,6.69
2022-11-02T22:48:52.161Z,6.64
2022-11-02T22:51:20.971Z,6.71
2022-11-02T22:53:49.365Z,6.65
2022-11-02T22:56:18.198Z,6.64
2022-11-02T22:58:48.164Z,6.66
2022-11-02T23:01:17.706Z,6.66
2022-11-02T23:03:46.205Z,6.68
2022-11-02T23:06:14.221Z,6.71
2022-11-02T23:08:44.588Z,6.77
2022-11-02T23:11:25.047Z,6.78
2022-11-02T23:13:56.675Z,6.69
2022-11-02T23:16:26.367Z,6.73
2022-11-02T23:19:20.403Z,6.75
2022-11-02T23:22:10.248Z,6.83
2022-11-02T23:24:56.308Z,6.77
2022-11-02T23:27:24.454Z,6.74
2022-11-02T23:30:11.342Z,6.79
2022-11-02T23:32:39.453Z,6.75
2022-11-02T23:35:25.181Z,6.74
2022-11-02T23:38:03.117Z,6.82
2022-11-02T23:40:31.100Z,6.88
2022-11-02T23:42:59.287Z,6.84
2022-11-02T23:45:28.629Z,6.86
2022-11-02T23:48:00.964Z,6.84
2022-11-02T23:50:48.451Z,6.89
2022-11-02T23:53:35.718Z,6.84
2022-11-02T23:56:21.538Z,6.84
2022-11-02T23:58:49.437Z,6.73
